Accueil
METAR-TAF:

METAR-TAF

Aéroports :

Aéroport international de Lusaka

Lusaka, Zambie

latitude: 15-19-51S, longitude: 028-27-09E, altitude: 1152 m

Observation

Le bulletin a été fait il y a 14 heures et 49 minutes, à 06:00 UTC
Vent 3 kt de sud-est
Température 16°C
Humidité 55%
Pression 1026 hPa
Visibilité 10 km ou plus
pas de nuages en-dessous de 1500 mètres et pas de cumulonimbus.

METAR: FLKK 200600Z 13003KT CAVOK 16/07 Q1026 NOSIG

Heure: 22:49 (20:49 UTC)

Prévision

Le bulletin a été fait il y a 22 heures et 49 minutes, à 22:00 UTC
Prévision valable du 20 à 00 UTC au 21 à 06 UTC
Vent 5 kt de sud-est
Visibilité 10 km ou plus
pas de nuages en-dessous de 1500 mètres et pas de cumulonimbus.
Evoluant progressivement
du 20 à 04 UTC au 20 à 06 UTC
Vent 5 kt de est
Evoluant progressivement
du 20 à 07 UTC au 20 à 11 UTC
Vent 10 kt de est

TAF: FLKK 192200Z 2000/2106 14005KT CAVOK BECMG 2004/2006 09005KT BECMG 2007/2011 09010KT

Observations et prévisions météorologiques de plus de 4000 aéroports (messages METAR et TAF).

Les stations disponibles sont représentées par des disques jaunes et rouges sur la carte.

Passer la souris dessus pour voir le nom de la station.

Cliquer dessus pour voir les observations et prévisions météorologiques.

Pour changer de carte: cliquez sur les boutons verts avec une croix noire pour zoomer, sur le bouton vert avec un tiret pour effectuer un zoom arrière, ou sur les flèches vertes pour les cartes adjacentes.


METAR-TAF: